createdAt,value
2023-01-12T00:00:55.013Z,3.70
2023-01-12T00:03:41.487Z,3.37
2023-01-12T00:06:26.866Z,3.10
2023-01-12T00:09:12.871Z,4.53
2023-01-12T00:11:58.666Z,3.53
2023-01-12T00:14:44.545Z,3.77
2023-01-12T00:17:33.359Z,3.50
2023-01-12T00:20:18.700Z,4.10
2023-01-12T00:23:04.394Z,3.60
2023-01-12T00:25:55.540Z,3.83
2023-01-12T00:28:43.400Z,3.73
2023-01-12T00:31:29.440Z,4.40
2023-01-12T00:34:17.626Z,4.47
2023-01-12T00:37:06.427Z,3.03
2023-01-12T00:40:01.861Z,3.60
2023-01-12T00:43:06.975Z,3.17
2023-01-12T00:45:52.990Z,3.50
2023-01-12T00:48:38.556Z,3.23
2023-01-12T00:51:24.017Z,2.80
2023-01-12T00:54:10.129Z,3.90
2023-01-12T00:56:56.350Z,3.63
2023-01-12T00:59:44.670Z,3.47
2023-01-12T01:02:30.244Z,3.90
2023-01-12T01:05:17.767Z,2.90
2023-01-12T01:08:04.448Z,2.83
2023-01-12T01:10:50.039Z,3.57
2023-01-12T01:13:37.249Z,2.20
2023-01-12T01:16:30.767Z,3.90
2023-01-12T01:19:16.763Z,1.80
2023-01-12T01:22:02.348Z,2.70
2023-01-12T01:24:48.196Z,2.97
2023-01-12T01:27:33.945Z,2.87
2023-01-12T01:30:20.185Z,2.23
2023-01-12T01:33:08.376Z,2.23
2023-01-12T01:35:56.720Z,2.20
2023-01-12T01:38:44.980Z,2.40
2023-01-12T01:41:33.618Z,1.90
2023-01-12T01:44:31.507Z,2.40
2023-01-12T01:47:27.098Z,1.90
2023-01-12T01:50:26.438Z,1.67
2023-01-12T01:53:16.934Z,1.50
2023-01-12T01:56:11.545Z,2.43
2023-01-12T01:59:05.165Z,2.10
2023-01-12T02:01:51.876Z,1.83
2023-01-12T02:04:38.388Z,1.37
2023-01-12T02:07:26.338Z,1.83
2023-01-12T02:10:12.007Z,1.63
2023-01-12T02:13:16.128Z,1.87
2023-01-12T02:16:23.127Z,1.27
2023-01-12T02:19:20.749Z,2.13
2023-01-12T02:22:34.025Z,1.93
2023-01-12T02:25:22.533Z,1.63
2023-01-12T02:28:48.249Z,1.53
2023-01-12T02:31:43.040Z,1.33
2023-01-12T02:35:19.860Z,1.33
2023-01-12T02:38:26.367Z,1.10
2023-01-12T02:41:58.807Z,1.60
2023-01-12T02:44:59.678Z,2.20
2023-01-12T02:47:57.121Z,1.43
2023-01-12T02:50:48.202Z,1.40
2023-01-12T02:53:50.813Z,1.00
2023-01-12T02:56:48.687Z,1.10
2023-01-12T02:59:37.239Z,1.43
2023-01-12T03:02:27.708Z,1.40
2023-01-12T03:05:16.321Z,0.90
2023-01-12T03:08:04.286Z,1.20
2023-01-12T03:10:58.738Z,1.37
2023-01-12T03:13:55.518Z,1.33
2023-01-12T03:16:42.050Z,1.30
2023-01-12T03:19:36.595Z,1.27
2023-01-12T03:22:22.918Z,1.17
2023-01-12T03:25:14.877Z,1.10
2023-01-12T03:28:05.253Z,1.20
2023-01-12T03:31:03.542Z,1.00
2023-01-12T03:33:48.944Z,1.33
2023-01-12T03:36:55.629Z,1.30
2023-01-12T03:40:08.400Z,1.17
2023-01-12T03:43:18.313Z,1.80
2023-01-12T03:46:12.881Z,1.37
2023-01-12T03:49:06.451Z,1.00
2023-01-12T03:51:55.796Z,1.10
2023-01-12T03:54:43.451Z,1.03
2023-01-12T03:57:31.647Z,1.27
2023-01-12T04:00:19.477Z,1.20
2023-01-12T04:03:14.280Z,1.20
2023-01-12T04:06:00.125Z,1.67
2023-01-12T04:08:45.666Z,1.20
2023-01-12T04:11:49.858Z,0.90
2023-01-12T04:14:38.613Z,2.30
2023-01-12T04:17:25.370Z,1.10
2023-01-12T04:20:13.218Z,1.50
2023-01-12T04:22:59.406Z,1.20
2023-01-12T04:25:47.397Z,1.13
2023-01-12T04:28:32.976Z,1.20
2023-01-12T04:31:21.409Z,1.77
2023-01-12T04:34:07.874Z,1.80
2023-01-12T04:36:55.287Z,1.37
2023-01-12T04:39:41.099Z,1.30
2023-01-12T04:42:45.741Z,1.33
2023-01-12T04:45:33.568Z,1.40
2023-01-12T04:48:19.770Z,1.20
2023-01-12T04:51:08.434Z,1.27
2023-01-12T04:53:53.943Z,1.10
2023-01-12T04:56:41.805Z,1.00
2023-01-12T04:59:28.597Z,1.13
2023-01-12T05:02:14.282Z,1.07
2023-01-12T05:04:59.986Z,0.90
2023-01-12T05:08:04.131Z,1.50
2023-01-12T05:10:57.019Z,1.37
2023-01-12T05:13:43.175Z,1.33
2023-01-12T05:16:31.671Z,1.30
2023-01-12T05:19:17.400Z,1.20
2023-01-12T05:22:02.827Z,1.20
2023-01-12T05:24:48.576Z,1.37
2023-01-12T05:27:33.888Z,1.50
2023-01-12T05:30:21.832Z,0.90
2023-01-12T05:33:07.648Z,1.10
2023-01-12T05:35:53.327Z,1.57
2023-01-12T05:38:41.926Z,1.00
2023-01-12T05:41:27.246Z,1.00
2023-01-12T05:44:14.939Z,1.20
2023-01-12T05:47:00.690Z,1.00
2023-01-12T05:49:45.741Z,1.40
2023-01-12T05:52:34.256Z,1.20
2023-01-12T05:55:24.283Z,1.13
2023-01-12T05:58:10.537Z,1.20
2023-01-12T06:00:58.218Z,1.20
2023-01-12T06:03:43.729Z,1.00
2023-01-12T06:06:32.890Z,1.07
2023-01-12T06:09:21.259Z,1.17
2023-01-12T06:12:29.314Z,2.27
2023-01-12T06:15:14.980Z,1.00
2023-01-12T06:18:01.008Z,1.17
2023-01-12T06:20:46.285Z,1.17
2023-01-12T06:23:34.963Z,0.93
2023-01-12T06:26:24.235Z,1.30
2023-01-12T06:29:09.523Z,1.40
2023-01-12T06:31:59.797Z,1.00
2023-01-12T06:34:45.256Z,1.87
2023-01-12T06:37:31.239Z,1.17
2023-01-12T06:40:19.088Z,1.30
2023-01-12T06:43:04.980Z,1.10
2023-01-12T06:45:54.547Z,1.30
2023-01-12T06:48:42.619Z,1.73
2023-01-12T06:51:27.880Z,1.20
2023-01-12T06:54:13.551Z,1.13
2023-01-12T06:56:58.800Z,0.97
2023-01-12T06:59:47.398Z,1.23
2023-01-12T07:02:35.989Z,1.03
2023-01-12T07:05:22.498Z,1.60
2023-01-12T07:08:07.876Z,1.10
2023-01-12T07:10:53.852Z,1.30
2023-01-12T07:13:41.894Z,0.90
2023-01-12T07:16:30.386Z,1.40
2023-01-12T07:19:21.095Z,1.23
2023-01-12T07:22:06.592Z,0.93
2023-01-12T07:24:52.317Z,1.30
2023-01-12T07:27:37.948Z,1.20
2023-01-12T07:30:25.511Z,1.10
2023-01-12T07:33:13.824Z,1.00
2023-01-12T07:36:01.188Z,1.30
2023-01-12T07:38:47.290Z,1.37
2023-01-12T07:42:03.964Z,0.80
2023-01-12T07:44:49.309Z,0.77
2023-01-12T07:47:35.275Z,1.10
2023-01-12T07:50:27.290Z,1.60
2023-01-12T07:53:15.031Z,1.20
2023-01-12T07:56:00.535Z,0.93
2023-01-12T07:58:50.226Z,1.17
2023-01-12T08:01:38.587Z,1.73
2023-01-12T08:04:24.465Z,1.20
2023-01-12T08:07:15.261Z,1.37
2023-01-12T08:10:00.950Z,1.10
2023-01-12T08:12:46.803Z,1.30
2023-01-12T08:15:37.379Z,1.23
2023-01-12T08:18:31.160Z,0.80
2023-01-12T08:21:21.649Z,1.40
2023-01-12T08:24:09.545Z,1.20
2023-01-12T08:26:58.681Z,1.10
2023-01-12T08:29:48.712Z,1.37
2023-01-12T08:32:35.713Z,1.37
2023-01-12T08:35:23.216Z,1.10
2023-01-12T08:38:10.391Z,1.03
2023-01-12T08:41:14.324Z,0.90
2023-01-12T08:44:02.012Z,1.70
2023-01-12T08:46:55.468Z,1.30
2023-01-12T08:49:41.082Z,1.20
2023-01-12T08:52:47.238Z,1.20
2023-01-12T08:55:33.241Z,1.50
2023-01-12T08:58:18.692Z,1.03
2023-01-12T09:01:16.673Z,1.30
2023-01-12T09:04:05.168Z,1.27
2023-01-12T09:06:50.479Z,1.40
2023-01-12T09:09:36.289Z,1.10
2023-01-12T09:12:24.377Z,1.03
2023-01-12T09:15:10.404Z,1.47
2023-01-12T09:17:56.073Z,0.90
2023-01-12T09:20:41.291Z,0.87
2023-01-12T09:23:29.075Z,1.00
2023-01-12T09:26:19.854Z,0.80
2023-01-12T09:29:05.921Z,0.93
2023-01-12T09:31:52.260Z,1.80
2023-01-12T09:34:40.894Z,1.13
2023-01-12T09:37:27.953Z,1.50
2023-01-12T09:40:18.024Z,1.53
2023-01-12T09:43:22.420Z,1.30
2023-01-12T09:46:37.348Z,1.27
2023-01-12T09:49:32.006Z,0.80
2023-01-12T09:52:29.589Z,1.40
2023-01-12T09:55:23.260Z,1.50
2023-01-12T09:58:28.126Z,1.00
2023-01-12T10:01:28.749Z,1.30
2023-01-12T10:04:15.212Z,1.30
2023-01-12T10:07:01.937Z,1.43
2023-01-12T10:09:50.934Z,1.00
2023-01-12T10:12:45.020Z,1.80
2023-01-12T10:15:43.816Z,1.00
2023-01-12T10:18:42.615Z,1.00
2023-01-12T10:21:30.567Z,1.10
2023-01-12T10:24:21.442Z,1.33
2023-01-12T10:27:16.477Z,0.70
2023-01-12T10:30:02.290Z,1.20
2023-01-12T10:32:47.843Z,1.30
2023-01-12T10:35:33.397Z,1.00
2023-01-12T10:38:38.279Z,1.17
2023-01-12T10:41:27.692Z,1.30
2023-01-12T10:44:16.519Z,1.27
2023-01-12T10:47:09.753Z,1.10
2023-01-12T10:50:25.587Z,1.20
2023-01-12T10:53:16.462Z,0.70
2023-01-12T10:56:13.143Z,1.30
2023-01-12T10:59:16.804Z,1.40
2023-01-12T11:02:05.794Z,1.27
2023-01-12T11:04:53.587Z,1.10
2023-01-12T11:07:51.009Z,1.20
2023-01-12T11:10:37.391Z,1.20
2023-01-12T11:13:36.481Z,1.57
2023-01-12T11:16:33.933Z,0.97
2023-01-12T11:19:26.500Z,1.47
2023-01-12T11:22:22.995Z,0.80
2023-01-12T11:25:15.000Z,1.00
2023-01-12T11:28:23.965Z,1.30
2023-01-12T11:31:28.622Z,1.33
2023-01-12T11:34:22.689Z,1.20
2023-01-12T11:37:14.248Z,0.90
2023-01-12T11:40:20.803Z,0.90
2023-01-12T11:43:51.696Z,1.00
2023-01-12T11:46:52.012Z,0.90
2023-01-12T11:49:48.696Z,0.87
2023-01-12T11:52:37.038Z,1.33
2023-01-12T11:56:01.116Z,1.50
2023-01-12T11:59:17.357Z,1.03
2023-01-12T12:02:28.968Z,1.00
2023-01-12T12:05:41.229Z,1.07
2023-01-12T12:08:56.040Z,1.50
2023-01-12T12:12:07.871Z,1.00
2023-01-12T12:15:33.254Z,0.80
2023-01-12T12:18:18.953Z,1.20
2023-01-12T12:21:32.473Z,0.90
2023-01-12T12:24:33.387Z,1.00
2023-01-12T12:27:58.094Z,1.10
2023-01-12T12:30:56.571Z,0.80
2023-01-12T12:33:54.184Z,1.00
2023-01-12T12:36:53.634Z,1.23
2023-01-12T12:39:51.853Z,0.80
2023-01-12T12:43:28.401Z,1.20
2023-01-12T12:46:34.396Z,1.00
2023-01-12T12:49:26.971Z,0.70
2023-01-12T12:52:14.157Z,0.90
2023-01-12T12:54:59.366Z,1.00
2023-01-12T12:58:20.629Z,0.80
2023-01-12T13:01:21.816Z,0.90
2023-01-12T13:04:11.148Z,0.90
2023-01-12T13:07:05.605Z,0.67
2023-01-12T13:09:53.453Z,0.90
2023-01-12T13:12:43.512Z,0.83
2023-01-12T13:15:36.110Z,0.80
2023-01-12T13:18:42.302Z,0.60
2023-01-12T13:21:42.703Z,0.80
2023-01-12T13:24:44.727Z,0.70
2023-01-12T13:28:01.507Z,0.80
2023-01-12T13:30:55.600Z,0.60
2023-01-12T13:33:42.931Z,0.70
2023-01-12T13:36:31.623Z,0.80
2023-01-12T13:39:17.533Z,0.90
2023-01-12T13:42:25.613Z,0.60
2023-01-12T13:45:17.401Z,0.90
2023-01-12T13:48:06.196Z,0.60
2023-01-12T13:51:03.177Z,0.70
2023-01-12T13:54:11.937Z,0.90
2023-01-12T13:57:03.516Z,0.70
2023-01-12T14:00:10.916Z,0.87
2023-01-12T14:02:57.611Z,0.63
2023-01-12T14:05:54.597Z,0.93
2023-01-12T14:08:50.668Z,0.70
2023-01-12T14:12:05.913Z,0.80
2023-01-12T14:15:47.691Z,0.80
2023-01-12T14:18:48.653Z,1.53
2023-01-12T14:21:37.460Z,0.90
2023-01-12T14:24:26.446Z,0.60
2023-01-12T14:27:27.487Z,0.90
2023-01-12T14:30:14.214Z,0.60
2023-01-12T14:32:59.793Z,0.60
2023-01-12T14:35:47.047Z,0.60
2023-01-12T14:38:39.447Z,1.07
2023-01-12T14:41:48.134Z,0.63
2023-01-12T14:44:55.565Z,0.50
2023-01-12T14:47:43.024Z,0.60
2023-01-12T14:50:29.182Z,0.73
2023-01-12T14:53:39.594Z,0.60
2023-01-12T14:56:35.166Z,0.80
2023-01-12T14:59:24.674Z,0.60
2023-01-12T15:02:13.349Z,0.70
2023-01-12T15:05:01.451Z,0.80
2023-01-12T15:07:56.833Z,0.60
2023-01-12T15:10:44.233Z,0.70
2023-01-12T15:13:34.833Z,0.60
2023-01-12T15:16:38.707Z,0.70
2023-01-12T15:19:42.998Z,0.50
2023-01-12T15:22:47.588Z,0.60
2023-01-12T15:25:35.948Z,0.60
2023-01-12T15:28:21.551Z,0.70
2023-01-12T15:31:20.224Z,0.70
2023-01-12T15:34:06.928Z,0.60
2023-01-12T15:36:52.350Z,0.70
2023-01-12T15:39:37.755Z,0.70
2023-01-12T15:42:26.403Z,0.70
2023-01-12T15:45:32.485Z,0.70
2023-01-12T15:48:20.930Z,0.50
2023-01-12T15:51:10.023Z,0.77
2023-01-12T15:53:57.789Z,0.83
2023-01-12T15:56:43.089Z,0.70
2023-01-12T15:59:30.908Z,0.83
2023-01-12T16:02:25.067Z,1.03
2023-01-12T16:05:13.511Z,0.80
2023-01-12T16:07:59.033Z,0.73
2023-01-12T16:11:04.406Z,0.80
2023-01-12T16:13:51.968Z,0.63
2023-01-12T16:16:38.055Z,0.70
2023-01-12T16:19:27.628Z,0.77
2023-01-12T16:22:26.618Z,0.70
2023-01-12T16:25:14.410Z,0.83
2023-01-12T16:28:01.009Z,0.90
2023-01-12T16:30:47.688Z,1.87
2023-01-12T16:33:33.299Z,1.00
2023-01-12T16:36:21.450Z,0.67
2023-01-12T16:39:06.825Z,0.80
2023-01-12T16:42:03.196Z,0.80
2023-01-12T16:44:50.143Z,0.60
2023-01-12T16:47:35.873Z,0.67
2023-01-12T16:50:21.581Z,1.00
2023-01-12T16:53:13.099Z,0.90
2023-01-12T16:56:02.035Z,0.80
2023-01-12T16:58:48.516Z,0.87
2023-01-12T17:01:35.556Z,0.80
2023-01-12T17:04:25.755Z,0.90
2023-01-12T17:07:11.901Z,0.70
2023-01-12T17:09:57.782Z,0.83
2023-01-12T17:12:52.990Z,0.80
2023-01-12T17:15:46.551Z,0.80
2023-01-12T17:18:32.779Z,1.17
2023-01-12T17:21:19.906Z,1.07
2023-01-12T17:24:08.778Z,0.70
2023-01-12T17:26:55.245Z,0.70
2023-01-12T17:29:41.553Z,0.87
2023-01-12T17:32:27.015Z,0.90
2023-01-12T17:35:14.669Z,1.00
2023-01-12T17:38:00.420Z,0.83
2023-01-12T17:40:46.130Z,0.87
2023-01-12T17:43:34.383Z,1.03
2023-01-12T17:46:20.432Z,0.70
2023-01-12T17:49:08.517Z,0.87
2023-01-12T17:51:58.800Z,0.80
2023-01-12T17:54:44.638Z,0.90
2023-01-12T17:57:31.754Z,0.70
2023-01-12T18:00:18.076Z,0.83
2023-01-12T18:03:06.159Z,0.50
2023-01-12T18:06:02.856Z,0.90
2023-01-12T18:08:51.689Z,0.80
2023-01-12T18:11:41.144Z,0.70
2023-01-12T18:14:27.918Z,0.63
2023-01-12T18:17:14.109Z,1.20
2023-01-12T18:20:00.502Z,0.80
2023-01-12T18:22:46.466Z,0.70
2023-01-12T18:25:35.379Z,0.70
2023-01-12T18:28:20.791Z,1.13
2023-01-12T18:31:10.403Z,0.70
2023-01-12T18:34:02.041Z,0.60
2023-01-12T18:36:50.425Z,0.63
2023-01-12T18:39:36.332Z,0.90
2023-01-12T18:42:40.671Z,0.70
2023-01-12T18:45:28.652Z,0.90
2023-01-12T18:48:24.247Z,0.60
2023-01-12T18:51:31.639Z,0.70
2023-01-12T18:54:19.630Z,0.67
2023-01-12T18:57:05.382Z,0.80
2023-01-12T19:00:15.543Z,1.00
2023-01-12T19:03:01.230Z,0.70
2023-01-12T19:05:58.779Z,0.90
2023-01-12T19:09:03.245Z,0.70
2023-01-12T19:11:49.381Z,1.03
2023-01-12T19:14:53.619Z,0.80
2023-01-12T19:17:41.881Z,0.60
2023-01-12T19:20:29.973Z,1.00
2023-01-12T19:23:34.460Z,0.70
2023-01-12T19:26:41.407Z,1.00
2023-01-12T19:29:30.740Z,1.03
2023-01-12T19:32:17.128Z,0.90
2023-01-12T19:35:10.981Z,1.00
2023-01-12T19:37:57.741Z,1.50
2023-01-12T19:40:46.054Z,1.00
2023-01-12T19:43:34.039Z,0.80
2023-01-12T19:46:19.481Z,0.80
2023-01-12T19:49:05.324Z,0.70
2023-01-12T19:51:51.020Z,0.80
2023-01-12T19:54:36.925Z,0.67
2023-01-12T19:57:24.732Z,0.70
2023-01-12T20:00:15.198Z,0.90
2023-01-12T20:03:01.229Z,0.73
2023-01-12T20:05:48.163Z,0.70
2023-01-12T20:08:33.822Z,0.70
2023-01-12T20:11:19.905Z,0.90
2023-01-12T20:14:05.819Z,0.77
2023-01-12T20:16:53.549Z,0.60
2023-01-12T20:19:39.465Z,0.90
2023-01-12T20:22:27.023Z,0.70
2023-01-12T20:25:15.394Z,0.70
2023-01-12T20:28:04.108Z,0.70
2023-01-12T20:30:52.321Z,1.00
2023-01-12T20:33:40.995Z,0.83
2023-01-12T20:36:26.632Z,0.50
2023-01-12T20:39:12.926Z,0.87
2023-01-12T20:41:58.628Z,0.70
2023-01-12T20:44:44.251Z,0.70
2023-01-12T20:47:34.081Z,0.70
2023-01-12T20:50:19.905Z,0.70
2023-01-12T20:53:07.475Z,0.80
2023-01-12T20:55:53.860Z,0.77
2023-01-12T20:58:39.628Z,0.60
2023-01-12T21:01:28.265Z,1.00
2023-01-12T21:04:14.628Z,1.00
2023-01-12T21:07:01.089Z,0.63
2023-01-12T21:09:46.608Z,0.93
2023-01-12T21:12:35.949Z,0.80
2023-01-12T21:15:21.843Z,1.10
2023-01-12T21:18:11.186Z,1.00
2023-01-12T21:20:57.611Z,0.90
2023-01-12T21:23:43.644Z,0.80
2023-01-12T21:26:31.350Z,0.70
2023-01-12T21:29:17.591Z,1.00
2023-01-12T21:32:03.788Z,1.10
2023-01-12T21:34:51.584Z,0.80
2023-01-12T21:37:37.528Z,1.00
2023-01-12T21:40:23.578Z,1.00
2023-01-12T21:43:09.501Z,0.90
2023-01-12T21:45:55.366Z,0.70
2023-01-12T21:48:40.934Z,0.90
2023-01-12T21:51:26.758Z,0.80
2023-01-12T21:54:12.139Z,0.90
2023-01-12T21:56:57.487Z,0.80
2023-01-12T21:59:43.474Z,0.80
2023-01-12T22:02:31.226Z,1.13
2023-01-12T22:05:21.654Z,0.90
2023-01-12T22:08:07.490Z,0.70
2023-01-12T22:10:53.356Z,0.93
2023-01-12T22:13:43.484Z,0.80
2023-01-12T22:16:31.723Z,1.10
2023-01-12T22:19:17.629Z,0.90
2023-01-12T22:22:03.314Z,0.83
2023-01-12T22:24:48.705Z,0.90
2023-01-12T22:27:35.939Z,1.00
2023-01-12T22:30:26.025Z,0.73
2023-01-12T22:33:12.444Z,1.10
2023-01-12T22:36:04.433Z,0.90
2023-01-12T22:38:50.357Z,0.80
2023-01-12T22:41:35.955Z,1.00
2023-01-12T22:44:24.646Z,1.00
2023-01-12T22:47:10.167Z,1.10
2023-01-12T22:49:55.825Z,1.10
2023-01-12T22:52:43.861Z,0.73
2023-01-12T22:55:32.404Z,1.23
2023-01-12T22:58:21.198Z,0.90
2023-01-12T23:01:09.710Z,0.77
2023-01-12T23:03:57.305Z,0.90
2023-01-12T23:06:42.761Z,0.90
2023-01-12T23:09:28.795Z,1.00
2023-01-12T23:12:14.586Z,0.80
2023-01-12T23:15:02.536Z,0.60
2023-01-12T23:17:48.393Z,0.60
2023-01-12T23:20:36.175Z,0.87
2023-01-12T23:23:22.163Z,0.60
2023-01-12T23:26:14.402Z,0.77
2023-01-12T23:29:03.030Z,0.80
2023-01-12T23:31:51.235Z,0.90
2023-01-12T23:34:37.639Z,0.80
2023-01-12T23:37:23.156Z,0.73
2023-01-12T23:40:09.623Z,1.10
2023-01-12T23:42:57.621Z,0.80
2023-01-12T23:45:44.048Z,0.70
2023-01-12T23:48:29.749Z,0.60
2023-01-12T23:51:15.731Z,0.70
2023-01-12T23:54:02.354Z,0.80
2023-01-12T23:56:53.019Z,0.70
2023-01-12T23:59:40.009Z,0.80
